Time;durP1;ratioP1;P1;durP2;ratioP2;P2;SDS_P1;SDS_P2;PMS_P1;PMS_P2;Temp;Humidity;BMP_temperature;BMP_pressure;BME280_temperature;BME280_humidity;BME280_pressure;Samples;Min_cycle;Max_cycle;Signal;HPM_P1;HPM_P2
2021/11/27 00:01:24;;;;;;;4.00;3.47;;;4.80;99.90;;;;;;5037967;28;20459;-87
2021/11/27 00:03:53;;;;;;;4.10;3.27;;;4.90;99.90;;;;;;5035899;28;20451;-87
2021/11/27 00:06:23;;;;;;;3.07;2.73;;;4.90;99.80;;;;;;5035601;28;20473;-87
2021/11/27 00:08:50;;;;;;;3.37;3.07;;;5.00;99.90;;;;;;5036472;28;20458;-86
2021/11/27 00:11:17;;;;;;;4.77;2.37;;;5.00;99.70;;;;;;5035944;28;20501;-87
2021/11/27 00:13:44;;;;;;;4.53;3.47;;;5.00;99.60;;;;;;5036520;28;20464;-86
2021/11/27 00:16:11;;;;;;;5.20;3.27;;;5.00;99.50;;;;;;5039584;28;20452;-86
2021/11/27 00:18:39;;;;;;;4.07;3.17;;;5.00;99.60;;;;;;5047616;28;20475;-87
2021/11/27 00:21:08;;;;;;;3.33;2.77;;;5.00;99.70;;;;;;5046749;28;20455;-88
2021/11/27 00:23:36;;;;;;;4.77;2.80;;;4.90;99.90;;;;;;5058855;28;20418;-86
2021/11/27 00:26:05;;;;;;;4.40;3.10;;;5.00;99.70;;;;;;5060899;28;20457;-87
2021/11/27 00:28:32;;;;;;;5.07;2.97;;;4.90;99.70;;;;;;5060463;28;20452;-86
2021/11/27 00:31:04;;;;;;;4.23;3.23;;;4.90;99.70;;;;;;5059175;28;20446;-87
2021/11/27 00:33:33;;;;;;;4.90;2.70;;;4.90;99.50;;;;;;5054667;28;20441;-88
2021/11/27 00:36:02;;;;;;;5.27;3.73;;;4.90;99.60;;;;;;5054876;28;20440;-87
2021/11/27 00:38:29;;;;;;;4.90;3.83;;;4.90;99.70;;;;;;5058288;28;20477;-88
2021/11/27 00:40:56;;;;;;;3.43;3.03;;;4.90;99.70;;;;;;5057189;28;20452;-88
2021/11/27 00:43:23;;;;;;;2.53;2.33;;;4.80;99.70;;;;;;5055684;28;20513;-87
2021/11/27 00:45:50;;;;;;;3.77;2.83;;;4.90;99.70;;;;;;5054259;28;20453;-87
2021/11/27 00:48:18;;;;;;;3.37;2.67;;;5.00;99.60;;;;;;5051089;28;20473;-88
2021/11/27 00:50:49;;;;;;;5.07;2.90;;;5.00;99.70;;;;;;5045085;28;20453;-88
2021/11/27 00:53:19;;;;;;;3.00;2.70;;;5.00;99.40;;;;;;5038455;28;20467;-88
2021/11/27 00:55:47;;;;;;;4.13;2.60;;;5.00;99.40;;;;;;5035043;28;20452;-87
2021/11/27 00:58:13;;;;;;;4.33;3.37;;;5.00;99.50;;;;;;5040043;28;20465;-88
2021/11/27 01:00:46;;;;;;;6.40;4.00;;;5.00;99.60;;;;;;5041723;28;20974;-87
2021/11/27 01:03:16;;;;;;;4.13;3.07;;;5.00;99.60;;;;;;5047101;28;20456;-88
2021/11/27 01:05:44;;;;;;;4.10;3.30;;;5.00;99.70;;;;;;5038418;28;20440;-88
2021/11/27 01:08:11;;;;;;;3.23;2.93;;;5.00;99.50;;;;;;5055608;28;20511;-87
2021/11/27 01:10:46;;;;;;;3.43;2.90;;;5.00;99.60;;;;;;5052667;28;20444;-87
2021/11/27 01:13:13;;;;;;;3.57;3.20;;;4.90;99.70;;;;;;5044398;28;20444;-88
2021/11/27 01:15:40;;;;;;;4.03;3.23;;;4.90;99.80;;;;;;5040056;28;20464;-87
2021/11/27 01:18:08;;;;;;;4.00;3.30;;;4.90;99.80;;;;;;5039149;28;20461;-87
2021/11/27 01:20:39;;;;;;;4.27;3.60;;;4.90;99.90;;;;;;5038094;28;20528;-87
2021/11/27 01:23:06;;;;;;;5.73;3.80;;;4.90;99.90;;;;;;5040555;28;20445;-87
2021/11/27 01:25:35;;;;;;;3.80;2.90;;;4.90;99.90;;;;;;5035120;28;20455;-87
2021/11/27 01:28:04;;;;;;;6.47;3.50;;;5.00;99.90;;;;;;5037436;28;20498;-88
2021/11/27 01:30:31;;;;;;;4.17;3.13;;;5.00;99.90;;;;;;5034691;28;20450;-87
2021/11/27 01:32:58;;;;;;;4.40;4.00;;;5.00;99.90;;;;;;5037115;28;20464;-87
2021/11/27 01:35:25;;;;;;;4.30;3.57;;;5.00;99.90;;;;;;5034874;28;20453;-86
2021/11/27 01:37:52;;;;;;;4.23;3.80;;;5.00;99.90;;;;;;5034058;28;20470;-87
2021/11/27 01:40:25;;;;;;;4.10;2.93;;;5.00;99.90;;;;;;5034431;28;20942;-87
2021/11/27 01:42:53;;;;;;;3.97;3.50;;;4.90;99.90;;;;;;5034678;28;20451;-87
2021/11/27 01:45:24;;;;;;;3.57;3.20;;;4.90;99.90;;;;;;5046847;28;20985;-87
2021/11/27 01:47:53;;;;;;;4.77;3.93;;;4.80;99.90;;;;;;5057003;22;20493;-86
2021/11/27 01:50:22;;;;;;;6.30;3.80;;;4.80;99.90;;;;;;5065378;28;20435;-86
2021/11/27 01:52:48;;;;;;;5.23;3.77;;;4.80;99.90;;;;;;5071473;28;20455;-85
2021/11/27 01:55:16;;;;;;;5.03;4.23;;;4.80;99.90;;;;;;5058435;28;20445;-85
2021/11/27 01:57:43;;;;;;;4.73;3.73;;;4.80;99.90;;;;;;5055516;28;20474;-86
2021/11/27 02:00:13;;;;;;;4.57;3.60;;;4.80;99.90;;;;;;5074405;28;20444;-85
2021/11/27 02:02:42;;;;;;;3.97;3.57;;;4.90;99.90;;;;;;5068855;28;20456;-86
2021/11/27 02:05:09;;;;;;;4.20;3.50;;;4.90;99.90;;;;;;5056991;28;20456;-85
2021/11/27 02:07:37;;;;;;;4.07;3.30;;;4.90;99.90;;;;;;5036315;28;20492;-84
2021/11/27 02:10:05;;;;;;;5.63;4.20;;;4.90;99.90;;;;;;5048004;28;20455;-85
2021/11/27 02:12:32;;;;;;;7.33;4.83;;;4.90;99.90;;;;;;5058685;28;20462;-85
2021/11/27 02:14:59;;;;;;;5.53;5.03;;;5.00;99.90;;;;;;5055023;28;20437;-84
2021/11/27 02:17:26;;;;;;;4.90;3.90;;;5.00;99.90;;;;;;5053633;28;20467;-84
2021/11/27 02:19:54;;;;;;;6.57;4.13;;;4.90;99.90;;;;;;5044139;28;20457;-85
2021/11/27 02:22:22;;;;;;;4.53;4.13;;;4.90;99.90;;;;;;5035797;28;20449;-85
2021/11/27 02:24:49;;;;;;;3.67;2.90;;;5.00;99.90;;;;;;5045983;28;20437;-85
2021/11/27 02:27:17;;;;;;;5.13;3.93;;;5.00;99.90;;;;;;5056597;28;20488;-86
2021/11/27 02:29:45;;;;;;;4.77;4.20;;;5.00;99.90;;;;;;5047067;28;20449;-85
2021/11/27 02:32:12;;;;;;;4.23;3.70;;;5.00;99.90;;;;;;5034692;28;20456;-85
2021/11/27 02:34:39;;;;;;;5.90;4.43;;;5.00;99.90;;;;;;5043633;28;20449;-86
2021/11/27 02:37:07;;;;;;;4.20;3.67;;;5.00;99.90;;;;;;5055499;28;20456;-86
2021/11/27 02:39:36;;;;;;;5.33;3.93;;;5.00;99.90;;;;;;5047109;28;20452;-85
2021/11/27 02:42:06;;;;;;;5.40;3.63;;;5.00;99.90;;;;;;5043951;28;20445;-84
2021/11/27 02:44:34;;;;;;;5.03;4.13;;;5.00;99.90;;;;;;5041365;28;20452;-86
2021/11/27 02:47:03;;;;;;;4.57;3.20;;;5.00;99.90;;;;;;5054167;28;21027;-84
2021/11/27 02:49:30;;;;;;;4.60;3.63;;;4.90;99.90;;;;;;5050702;28;20453;-85
2021/11/27 02:51:57;;;;;;;5.87;3.97;;;5.00;99.90;;;;;;5033462;28;20440;-85
2021/11/27 02:54:25;;;;;;;4.57;4.17;;;5.00;99.90;;;;;;5050452;28;20450;-85
2021/11/27 02:56:55;;;;;;;6.90;5.20;;;5.00;99.90;;;;;;5053840;28;20437;-85
2021/11/27 02:59:25;;;;;;;5.07;3.87;;;5.00;99.90;;;;;;5051130;28;20509;-85
2021/11/27 03:01:56;;;;;;;5.27;4.13;;;4.90;99.90;;;;;;5041770;28;20457;-84
2021/11/27 03:04:23;;;;;;;6.23;3.20;;;4.90;99.90;;;;;;5040002;28;20487;-84
2021/11/27 03:06:50;;;;;;;7.80;4.10;;;5.00;99.90;;;;;;5052720;28;20450;-84
2021/11/27 03:09:19;;;;;;;4.97;4.10;;;5.00;99.90;;;;;;5047663;28;20446;-83
2021/11/27 03:11:49;;;;;;;6.53;4.07;;;5.00;99.90;;;;;;5037019;28;20456;-83
2021/11/27 03:14:17;;;;;;;5.40;4.60;;;5.00;99.90;;;;;;5053243;28;20441;-84
2021/11/27 03:16:44;;;;;;;5.30;3.63;;;5.00;99.90;;;;;;5053136;28;20448;-84
2021/11/27 03:19:11;;;;;;;5.33;4.40;;;5.00;99.90;;;;;;5050311;28;20454;-84
2021/11/27 03:21:38;;;;;;;6.93;3.73;;;5.00;99.90;;;;;;5044611;28;20434;-83
2021/11/27 03:24:05;;;;;;;4.50;4.10;;;5.00;99.90;;;;;;5047723;28;20449;-84
2021/11/27 03:26:32;;;;;;;4.37;3.60;;;5.00;99.90;;;;;;5035014;28;20461;-84
2021/11/27 03:28:59;;;;;;;4.07;3.63;;;5.00;99.90;;;;;;5050310;28;20488;-84
2021/11/27 03:31:27;;;;;;;4.80;3.83;;;5.00;99.90;;;;;;5042240;28;20449;-84
2021/11/27 03:33:54;;;;;;;4.57;4.13;;;5.10;99.90;;;;;;5052364;28;20451;-84
2021/11/27 03:36:21;;;;;;;4.13;3.70;;;5.00;99.90;;;;;;5068427;28;20434;-84
2021/11/27 03:38:48;;;;;;;4.70;3.67;;;5.00;99.90;;;;;;5071683;28;20464;-85
2021/11/27 03:41:16;;;;;;;5.80;3.60;;;5.10;99.90;;;;;;5067854;28;20428;-84
2021/11/27 03:43:44;;;;;;;5.17;3.70;;;5.00;99.90;;;;;;5063771;28;20508;-84
2021/11/27 03:46:11;;;;;;;7.00;4.40;;;5.00;99.90;;;;;;5045252;28;20447;-84
2021/11/27 03:48:42;;;;;;;4.50;4.00;;;5.10;99.90;;;;;;5034494;28;20481;-85
2021/11/27 03:51:12;;;;;;;5.10;3.47;;;5.10;99.90;;;;;;5030413;28;20440;-84
2021/11/27 03:53:41;;;;;;;3.43;3.13;;;5.10;99.90;;;;;;5036163;28;20807;-85
2021/11/27 03:56:11;;;;;;;5.60;4.00;;;5.00;99.90;;;;;;5033724;28;20433;-84
2021/11/27 03:58:38;;;;;;;3.80;3.40;;;5.10;99.90;;;;;;5037619;28;20461;-84
2021/11/27 04:01:07;;;;;;;4.73;3.97;;;5.00;99.90;;;;;;5036929;28;20460;-84
2021/11/27 04:03:34;;;;;;;4.83;3.70;;;5.00;99.90;;;;;;5036942;28;20441;-84
2021/11/27 04:06:03;;;;;;;5.47;3.60;;;4.90;99.90;;;;;;5036625;28;20958;-84
2021/11/27 04:08:31;;;;;;;6.47;3.90;;;4.90;99.90;;;;;;5056501;28;20480;-84
2021/11/27 04:10:58;;;;;;;4.40;3.83;;;4.90;99.90;;;;;;5038653;28;20446;-84
2021/11/27 04:13:25;;;;;;;3.90;3.30;;;4.90;99.90;;;;;;5053892;28;20790;-84
2021/11/27 04:15:52;;;;;;;3.50;3.00;;;4.90;99.90;;;;;;5040094;28;20534;-85
2021/11/27 04:18:19;;;;;;;3.20;2.53;;;4.90;99.90;;;;;;5036462;28;20832;-85
2021/11/27 04:20:46;;;;;;;3.50;3.20;;;4.90;99.90;;;;;;5054750;28;20421;-84
2021/11/27 04:23:14;;;;;;;3.30;3.00;;;4.80;99.90;;;;;;5054739;28;20796;-85
2021/11/27 04:25:42;;;;;;;3.50;3.17;;;4.80;99.90;;;;;;5036365;28;20449;-85
2021/11/27 04:28:09;;;;;;;5.07;3.30;;;4.90;99.90;;;;;;5050957;28;20907;-85
2021/11/27 04:30:36;;;;;;;5.30;4.00;;;4.90;99.90;;;;;;5055928;28;20452;-85
2021/11/27 04:33:03;;;;;;;3.93;2.63;;;4.90;99.90;;;;;;5044529;28;20454;-85
2021/11/27 04:35:32;;;;;;;3.50;2.97;;;4.90;99.90;;;;;;5036757;28;20445;-85
2021/11/27 04:37:59;;;;;;;2.67;2.40;;;4.90;99.90;;;;;;5054601;28;20483;-85
2021/11/27 04:40:28;;;;;;;3.30;2.23;;;4.80;99.90;;;;;;5060141;28;20971;-85
2021/11/27 04:42:55;;;;;;;4.43;2.87;;;4.90;99.90;;;;;;5045479;28;20961;-84
2021/11/27 04:45:23;;;;;;;3.00;2.70;;;4.80;99.90;;;;;;5036868;28;20453;-85
2021/11/27 04:47:49;;;;;;;3.40;2.43;;;4.90;99.90;;;;;;5044147;28;20482;-85
2021/11/27 04:50:18;;;;;;;4.87;3.40;;;4.90;99.90;;;;;;5059785;28;20947;-85
2021/11/27 04:52:45;;;;;;;3.43;2.27;;;4.90;99.90;;;;;;5049560;28;20447;-84
2021/11/27 04:55:13;;;;;;;3.13;2.20;;;5.00;99.90;;;;;;5039625;28;20447;-85
2021/11/27 04:57:41;;;;;;;2.80;1.80;;;5.00;99.90;;;;;;5044069;28;20473;-85
2021/11/27 05:00:12;;;;;;;3.07;2.73;;;5.00;99.90;;;;;;5056195;28;20452;-84
2021/11/27 05:02:39;;;;;;;4.00;2.60;;;5.00;99.90;;;;;;5048132;28;20460;-85
2021/11/27 05:05:06;;;;;;;3.10;2.03;;;5.00;99.90;;;;;;5050894;28;20424;-85
2021/11/27 05:07:33;;;;;;;3.10;2.70;;;5.00;99.90;;;;;;5040983;28;20503;-85
2021/11/27 05:09:59;;;;;;;2.83;2.53;;;5.00;99.90;;;;;;5046107;28;20833;-85
2021/11/27 05:12:26;;;;;;;3.40;2.13;;;5.10;99.90;;;;;;5039327;28;20827;-85
2021/11/27 05:14:54;;;;;;;2.60;1.87;;;5.00;99.90;;;;;;5055508;28;20446;-85
2021/11/27 05:17:21;;;;;;;3.80;3.03;;;5.10;99.90;;;;;;5059624;28;20465;-84
2021/11/27 05:19:48;;;;;;;2.47;2.00;;;5.10;99.90;;;;;;5070283;28;20436;-85
2021/11/27 05:22:15;;;;;;;3.00;1.90;;;5.00;99.90;;;;;;5055441;28;20794;-85
2021/11/27 05:24:44;;;;;;;3.33;1.70;;;5.00;99.90;;;;;;5034923;28;20459;-84
2021/11/27 05:27:11;;;;;;;2.53;1.80;;;5.00;99.90;;;;;;5034726;28;20466;-85
2021/11/27 05:29:38;;;;;;;2.53;1.67;;;4.90;99.90;;;;;;5034748;28;20556;-85
2021/11/27 05:32:09;;;;;;;2.73;1.87;;;5.00;99.90;;;;;;5034687;28;21117;-84
2021/11/27 05:34:36;;;;;;;2.37;1.40;;;4.90;99.90;;;;;;5022075;28;20454;-85
2021/11/27 05:37:05;;;;;;;1.50;1.30;;;4.90;99.90;;;;;;5032247;28;20462;-85
2021/11/27 05:39:32;;;;;;;1.53;1.43;;;4.90;99.90;;;;;;5044237;28;20452;-85
2021/11/27 05:41:59;;;;;;;2.53;1.67;;;4.90;99.90;;;;;;5035583;28;20456;-85
2021/11/27 05:44:26;;;;;;;3.23;1.70;;;4.90;99.90;;;;;;5053113;28;20440;-85
2021/11/27 05:46:53;;;;;;;1.83;1.33;;;4.90;99.90;;;;;;5047751;28;20439;-85
2021/11/27 05:49:21;;;;;;;3.50;1.80;;;4.90;99.90;;;;;;5066155;28;21045;-84
2021/11/27 05:51:48;;;;;;;2.00;1.20;;;4.90;99.90;;;;;;5064665;28;20452;-85
2021/11/27 05:54:15;;;;;;;1.53;1.10;;;4.90;99.90;;;;;;5038928;28;20521;-85
2021/11/27 05:56:42;;;;;;;1.50;1.40;;;4.90;99.90;;;;;;5034619;28;20459;-84
2021/11/27 05:59:08;;;;;;;1.53;1.30;;;4.90;99.90;;;;;;5052468;28;20451;-84
2021/11/27 06:01:35;;;;;;;2.10;1.10;;;4.90;99.90;;;;;;5054099;28;20448;-85
2021/11/27 06:04:02;;;;;;;1.60;1.30;;;4.90;99.90;;;;;;5034830;28;20453;-85
2021/11/27 06:06:30;;;;;;;1.47;0.90;;;4.90;99.90;;;;;;5034185;28;20449;-86
2021/11/27 06:08:57;;;;;;;1.80;1.30;;;5.00;99.90;;;;;;5052536;28;20480;-85
2021/11/27 06:11:24;;;;;;;1.80;1.30;;;5.00;99.90;;;;;;5056565;28;20444;-85
2021/11/27 06:13:51;;;;;;;1.60;1.27;;;5.00;99.90;;;;;;5064864;28;20444;-85
2021/11/27 06:16:17;;;;;;;1.53;1.20;;;5.00;99.90;;;;;;5045430;28;20448;-85
2021/11/27 06:18:44;;;;;;;1.50;1.20;;;5.00;99.90;;;;;;5033649;28;20465;-85
2021/11/27 06:21:11;;;;;;;1.53;1.40;;;5.00;99.90;;;;;;5057424;28;20453;-85
2021/11/27 06:23:39;;;;;;;1.70;1.17;;;5.00;99.90;;;;;;5041836;28;20945;-85
2021/11/27 06:26:06;;;;;;;1.80;1.60;;;5.00;99.90;;;;;;5033492;28;20460;-85
2021/11/27 06:28:34;;;;;;;2.23;1.47;;;5.00;99.90;;;;;;5044015;28;20480;-85
2021/11/27 06:31:01;;;;;;;1.97;1.83;;;5.00;99.90;;;;;;5053368;28;20452;-86
2021/11/27 06:33:27;;;;;;;2.03;1.50;;;5.00;99.90;;;;;;5055275;28;20450;-85
2021/11/27 06:35:55;;;;;;;1.47;1.37;;;5.00;99.90;;;;;;5035180;28;20444;-85
2021/11/27 06:38:22;;;;;;;1.73;1.23;;;5.00;99.90;;;;;;5042152;28;20464;-86
2021/11/27 06:40:51;;;;;;;1.43;1.00;;;5.00;99.90;;;;;;5052987;28;20441;-86
2021/11/27 06:43:17;;;;;;;1.77;1.53;;;5.00;99.90;;;;;;5045274;28;20445;-86
2021/11/27 06:45:44;;;;;;;1.60;1.27;;;5.00;99.90;;;;;;5033065;28;20954;-86
2021/11/27 06:48:11;;;;;;;2.03;1.80;;;4.90;99.90;;;;;;5039785;28;20491;-86
2021/11/27 06:50:38;;;;;;;2.83;1.90;;;5.00;99.90;;;;;;5053273;28;20460;-85
2021/11/27 06:53:05;;;;;;;1.30;1.07;;;4.90;99.90;;;;;;5047581;28;21001;-85
2021/11/27 06:55:31;;;;;;;1.87;1.67;;;4.90;99.90;;;;;;5038861;28;20413;-85
2021/11/27 06:58:00;;;;;;;2.70;1.40;;;5.00;99.90;;;;;;5053057;28;20470;-85
2021/11/27 07:00:27;;;;;;;1.30;1.07;;;5.00;99.90;;;;;;5038311;28;20452;-85
2021/11/27 07:02:54;;;;;;;1.43;1.30;;;5.00;99.90;;;;;;5039264;28;20456;-85
2021/11/27 07:05:20;;;;;;;2.27;2.07;;;5.00;99.90;;;;;;5054511;28;20444;-85
2021/11/27 07:07:47;;;;;;;6.77;1.63;;;5.00;99.90;;;;;;5051071;28;20469;-85
2021/11/27 07:10:14;;;;;;;1.53;1.43;;;5.00;99.90;;;;;;5033880;28;20867;-86
2021/11/27 07:12:41;;;;;;;1.20;1.10;;;5.00;99.90;;;;;;5036806;28;20453;-85
2021/11/27 07:15:10;;;;;;;2.13;1.80;;;5.00;99.90;;;;;;5043065;28;20994;-85
2021/11/27 07:17:37;;;;;;;1.80;1.40;;;5.00;99.90;;;;;;5032929;28;20836;-86
2021/11/27 07:20:06;;;;;;;9.10;6.63;;;5.10;99.90;;;;;;5037330;28;20460;-80
2021/11/27 07:22:33;;;;;;;2.23;1.80;;;5.10;99.90;;;;;;5039861;28;20466;-80
2021/11/27 07:24:59;;;;;;;1.03;0.80;;;5.10;99.90;;;;;;5050826;28;20822;-80
2021/11/27 07:27:26;;;;;;;3.90;2.20;;;5.10;99.90;;;;;;5042256;28;20472;-80
2021/11/27 07:29:53;;;;;;;1.47;1.10;;;5.10;99.90;;;;;;5054150;28;20469;-80
2021/11/27 07:32:21;;;;;;;3.40;1.87;;;5.10;99.90;;;;;;5048050;28;20491;-79
2021/11/27 07:34:48;;;;;;;3.03;1.30;;;5.10;99.90;;;;;;5059037;28;20451;-79
2021/11/27 07:37:14;;;;;;;1.93;1.27;;;5.10;99.90;;;;;;5060842;28;20841;-79
2021/11/27 07:39:41;;;;;;;1.27;1.17;;;5.20;99.90;;;;;;5050429;28;20447;-84
2021/11/27 07:42:08;;;;;;;1.87;1.10;;;5.20;99.90;;;;;;5055513;28;20512;-84
2021/11/27 07:44:35;;;;;;;3.63;1.67;;;5.20;99.90;;;;;;5058003;28;20452;-84
2021/11/27 07:47:02;;;;;;;1.80;1.40;;;5.30;99.90;;;;;;5062066;28;20480;-85
2021/11/27 07:49:30;;;;;;;1.57;1.40;;;5.40;99.90;;;;;;5107346;22;20483;-85
2021/11/27 07:51:56;;;;;;;2.13;1.67;;;5.50;99.90;;;;;;5058156;28;20440;-87
2021/11/27 07:54:23;;;;;;;2.03;1.40;;;5.50;99.90;;;;;;5057143;28;20451;-86
2021/11/27 07:56:51;;;;;;;2.10;1.33;;;5.50;99.90;;;;;;5074887;28;20436;-87
2021/11/27 07:59:18;;;;;;;1.87;1.20;;;5.50;99.90;;;;;;5052604;28;20841;-87
2021/11/27 08:01:45;;;;;;;1.70;1.47;;;5.60;99.90;;;;;;5028518;28;20872;-87
2021/11/27 08:04:12;;;;;;;1.83;1.63;;;5.50;99.90;;;;;;5037156;28;20447;-86
2021/11/27 08:06:41;;;;;;;1.97;1.50;;;5.50;99.90;;;;;;5031842;28;20443;-86
2021/11/27 08:09:08;;;;;;;2.13;1.47;;;5.50;99.90;;;;;;5036597;28;20496;-86
2021/11/27 08:11:35;;;;;;;3.03;1.80;;;5.40;99.90;;;;;;5032077;28;20453;-85
2021/11/27 08:14:03;;;;;;;7.57;2.10;;;5.40;99.90;;;;;;5030715;28;20441;-86
2021/11/27 08:16:30;;;;;;;2.57;1.50;;;5.30;99.90;;;;;;5026027;28;20443;-85
2021/11/27 08:18:57;;;;;;;3.00;1.73;;;5.40;99.90;;;;;;5039783;28;20465;-87
2021/11/27 08:21:25;;;;;;;1.57;1.23;;;5.50;99.90;;;;;;5037056;28;20449;-85
2021/11/27 08:23:53;;;;;;;1.70;1.60;;;5.50;99.90;;;;;;5054092;28;20459;-84
2021/11/27 08:26:20;;;;;;;1.77;1.10;;;5.80;99.90;;;;;;5059341;28;20433;-86
2021/11/27 08:28:48;;;;;;;1.80;1.50;;;5.80;99.90;;;;;;5056453;28;20496;-87
2021/11/27 08:31:15;;;;;;;2.70;1.63;;;5.90;99.90;;;;;;5053970;28;20433;-86
2021/11/27 08:33:42;;;;;;;2.53;1.90;;;5.90;99.90;;;;;;5049832;28;20444;-87
2021/11/27 08:36:09;;;;;;;3.10;2.40;;;6.00;99.90;;;;;;5039132;28;20468;-87
2021/11/27 08:38:36;;;;;;;2.90;1.57;;;6.20;99.90;;;;;;5044394;28;20465;-88
2021/11/27 08:41:07;;;;;;;3.40;1.30;;;6.30;99.90;;;;;;5057710;28;20437;-87
2021/11/27 08:43:35;;;;;;;2.37;1.87;;;6.50;99.90;;;;;;5056144;28;20453;-86
2021/11/27 08:46:02;;;;;;;1.33;1.17;;;6.90;99.90;;;;;;5059246;28;20429;-87
2021/11/27 08:48:30;;;;;;;2.17;1.57;;;7.00;99.90;;;;;;5058168;28;20465;-88
2021/11/27 08:50:57;;;;;;;3.10;1.70;;;7.00;99.90;;;;;;5049189;28;20563;-87
2021/11/27 08:53:23;;;;;;;2.87;1.37;;;6.90;99.90;;;;;;5040893;28;20425;-87
2021/11/27 08:55:50;;;;;;;2.30;1.27;;;6.80;99.90;;;;;;5038349;28;20453;-88
2021/11/27 08:58:19;;;;;;;4.67;1.80;;;6.90;99.90;;;;;;5041227;28;20472;-88
2021/11/27 09:00:45;;;;;;;4.20;1.77;;;7.00;99.90;;;;;;5041602;28;20449;-88
2021/11/27 09:03:12;;;;;;;2.30;1.30;;;7.20;99.90;;;;;;5043765;28;20449;-88
2021/11/27 09:05:39;;;;;;;2.63;1.90;;;7.20;99.90;;;;;;5040588;28;20446;-87
2021/11/27 09:08:06;;;;;;;2.60;1.60;;;7.20;99.90;;;;;;5040191;28;20572;-87
2021/11/27 09:10:33;;;;;;;2.53;1.60;;;7.20;99.90;;;;;;5038421;28;20476;-87
2021/11/27 09:13:01;;;;;;;4.33;1.23;;;7.20;99.90;;;;;;5044352;28;20457;-87
2021/11/27 09:15:29;;;;;;;2.70;1.60;;;7.10;99.90;;;;;;5056313;28;20457;-87
2021/11/27 09:17:57;;;;;;;2.10;1.23;;;7.00;99.90;;;;;;5054023;28;20467;-86
2021/11/27 09:20:25;;;;;;;1.90;1.50;;;7.10;99.90;;;;;;5058610;28;20435;-87
2021/11/27 09:22:53;;;;;;;3.37;1.43;;;7.20;99.90;;;;;;5059751;28;20434;-87
2021/11/27 09:25:20;;;;;;;2.47;1.47;;;7.40;99.90;;;;;;5046992;28;20520;-87
2021/11/27 09:27:46;;;;;;;2.17;1.40;;;7.70;99.90;;;;;;5049852;28;20454;-88
2021/11/27 09:30:15;;;;;;;1.40;1.20;;;8.10;99.90;;;;;;5053044;28;20465;-88
2021/11/27 09:32:43;;;;;;;4.03;1.10;;;8.30;99.90;;;;;;5058399;28;20418;-88
2021/11/27 09:35:11;;;;;;;3.43;1.23;;;8.40;99.90;;;;;;5070967;28;20459;-89
2021/11/27 09:37:37;;;;;;;2.00;1.40;;;8.40;99.90;;;;;;5060635;28;20448;-87
2021/11/27 09:40:13;;;;;;;1.57;1.40;;;8.00;99.90;;;;;;5061696;28;21839;-90
2021/11/27 09:42:41;;;;;;;2.10;1.73;;;7.90;99.90;;;;;;5049187;28;20436;-87
2021/11/27 09:45:09;;;;;;;2.47;1.10;;;7.80;99.90;;;;;;5040364;28;20454;-87
2021/11/27 09:47:37;;;;;;;4.83;2.20;;;7.60;99.90;;;;;;5035508;28;20455;-87
2021/11/27 09:50:09;;;;;;;2.73;1.53;;;7.60;99.90;;;;;;5050686;28;20484;-87
2021/11/27 09:52:37;;;;;;;5.30;1.70;;;7.60;99.90;;;;;;5020034;28;20438;-87
2021/11/27 09:55:05;;;;;;;1.93;1.37;;;7.60;99.90;;;;;;5030541;28;20445;-85
2021/11/27 09:57:32;;;;;;;5.93;1.53;;;7.40;99.90;;;;;;5056103;28;20439;-86
2021/11/27 09:59:58;;;;;;;3.13;1.07;;;7.40;99.90;;;;;;5056137;28;20445;-85
2021/11/27 10:02:26;;;;;;;2.40;1.00;;;7.30;99.90;;;;;;5041981;28;20452;-87
2021/11/27 10:04:54;;;;;;;0.80;0.80;;;7.20;99.90;;;;;;5041945;28;20445;-86
2021/11/27 10:07:23;;;;;;;1.00;0.90;;;7.20;99.90;;;;;;5039285;28;20449;-87
2021/11/27 10:09:52;;;;;;;1.20;0.90;;;7.40;99.90;;;;;;5036715;28;20493;-86
2021/11/27 10:12:21;;;;;;;1.90;1.10;;;7.70;99.90;;;;;;5043784;28;20449;-87
2021/11/27 10:14:48;;;;;;;2.57;1.23;;;8.30;99.90;;;;;;5047200;28;20487;-87
2021/11/27 10:17:15;;;;;;;1.80;1.50;;;9.00;99.90;;;;;;5041268;28;20456;-87
2021/11/27 10:19:51;;;;;;;2.13;1.10;;;9.60;99.90;;;;;;5037060;28;20450;-87
2021/11/27 10:22:20;;;;;;;1.10;0.90;;;10.20;97.90;;;;;;5030182;28;20453;-86
2021/11/27 10:24:50;;;;;;;2.60;1.47;;;10.80;97.00;;;;;;5028374;28;20438;-88
2021/11/27 10:27:20;;;;;;;1.00;0.80;;;11.40;95.40;;;;;;5025692;28;21018;-88
2021/11/27 10:29:57;;;;;;;1.73;1.40;;;11.70;94.80;;;;;;5022546;28;20478;-88
2021/11/27 10:32:30;;;;;;;1.83;0.93;;;12.00;94.20;;;;;;5044470;28;20459;-88
2021/11/27 10:34:57;;;;;;;3.07;1.70;;;13.10;93.40;;;;;;5038839;28;20452;-87
2021/11/27 10:37:27;;;;;;;2.30;1.47;;;13.90;90.50;;;;;;5040409;28;20453;-88
2021/11/27 10:40:05;;;;;;;2.70;1.73;;;14.70;88.50;;;;;;5043790;28;20539;-88
2021/11/27 10:42:33;;;;;;;2.17;1.40;;;14.30;83.60;;;;;;5024151;28;20469;-88
2021/11/27 10:45:13;;;;;;;1.73;1.53;;;13.70;84.90;;;;;;5022002;28;20453;-88
2021/11/27 10:47:46;;;;;;;1.80;1.37;;;12.80;86.20;;;;;;5048338;28;20477;-88
2021/11/27 10:50:21;;;;;;;2.00;1.03;;;11.20;88.00;;;;;;5059188;28;20519;-87
2021/11/27 10:53:42;;;;;;;4.27;2.10;;;9.90;91.90;;;;;;5059826;28;20456;-89
2021/11/27 10:56:44;;;;;;;1.63;1.10;;;9.20;93.90;;;;;;5029098;28;20433;-86
2021/11/27 10:59:16;;;;;;;2.17;1.77;;;8.50;94.90;;;;;;5061062;28;20495;-87
2021/11/27 11:02:24;;;;;;;2.27;1.50;;;8.30;95.70;;;;;;5058421;28;20455;-87
2021/11/27 11:05:06;;;;;;;4.60;1.10;;;8.30;96.60;;;;;;5070544;28;20447;-89
2021/11/27 11:07:35;;;;;;;2.50;1.67;;;8.10;95.90;;;;;;5063150;28;20456;-89
2021/11/27 11:10:31;;;;;;;4.10;1.40;;;7.90;96.10;;;;;;5065814;28;20479;-87
2021/11/27 11:13:02;;;;;;;1.47;1.37;;;7.80;96.30;;;;;;5059488;28;20508;-88
2021/11/27 11:15:38;;;;;;;4.80;1.40;;;7.60;96.60;;;;;;5054706;28;20437;-87
2021/11/27 11:18:18;;;;;;;2.57;1.40;;;7.60;96.90;;;;;;5052194;28;20604;-88
2021/11/27 11:20:54;;;;;;;2.50;1.60;;;7.60;97.10;;;;;;5060519;28;20491;-87
2021/11/27 11:23:23;;;;;;;2.80;1.60;;;7.60;97.00;;;;;;5052558;28;20447;-88
2021/11/27 11:25:57;;;;;;;3.40;0.83;;;7.60;97.20;;;;;;5053518;28;20444;-89
2021/11/27 11:28:43;;;;;;;3.43;1.57;;;7.60;97.40;;;;;;5052938;28;20453;-85
2021/11/27 11:31:19;;;;;;;2.13;1.03;;;7.50;97.30;;;;;;5051871;28;20473;-87
2021/11/27 11:33:48;;;;;;;2.10;0.83;;;7.40;97.40;;;;;;5055874;28;20435;-87
2021/11/27 11:43:07;;;;;;;1.10;1.00;;;7.50;97.80;;;;;;5052616;28;20456;-90
2021/11/27 11:45:55;;;;;;;2.03;1.60;;;7.50;97.70;;;;;;5062974;28;20447;-86
2021/11/27 11:48:28;;;;;;;1.93;1.20;;;7.60;97.90;;;;;;5067761;28;20440;-88
2021/11/27 11:51:17;;;;;;;2.37;1.27;;;7.50;98.00;;;;;;5056072;28;20474;-87
2021/11/27 11:53:49;;;;;;;2.13;1.40;;;7.50;98.10;;;;;;5067380;28;20432;-82
2021/11/27 11:56:20;;;;;;;2.23;1.20;;;7.70;98.40;;;;;;5057435;28;20505;-87
2021/11/27 11:58:49;;;;;;;3.70;2.30;;;7.90;98.30;;;;;;5050915;28;20457;-88
2021/11/27 12:01:20;;;;;;;7.23;1.70;;;8.10;98.10;;;;;;5058933;28;20445;-86
2021/11/27 12:03:50;;;;;;;2.20;1.53;;;8.20;97.70;;;;;;5066592;28;20447;-88
2021/11/27 12:06:24;;;;;;;3.27;1.67;;;8.20;97.70;;;;;;5053375;28;20440;-86
2021/11/27 12:09:04;;;;;;;3.87;2.20;;;8.20;97.80;;;;;;5054962;28;20548;-86
2021/11/27 12:11:56;;;;;;;1.43;1.30;;;8.30;98.10;;;;;;5056265;28;20482;-86
2021/11/27 12:15:06;;;;;;;1.47;1.37;;;8.40;98.40;;;;;;5023515;28;20441;-86
2021/11/27 12:18:04;;;;;;;2.20;1.80;;;8.40;98.90;;;;;;5023018;28;20453;-87
2021/11/27 12:20:42;;;;;;;2.50;1.07;;;8.20;99.30;;;;;;5023710;28;20525;-87
2021/11/27 12:23:35;;;;;;;3.40;1.40;;;8.10;99.50;;;;;;5043319;28;20445;-87
2021/11/27 12:26:27;;;;;;;1.40;1.00;;;8.00;99.70;;;;;;5030382;28;20839;-87
2021/11/27 12:29:18;;;;;;;2.03;1.30;;;8.00;99.90;;;;;;5042710;28;20449;-86
2021/11/27 12:31:52;;;;;;;2.10;1.20;;;8.00;99.90;;;;;;5036499;28;20480;-87
2021/11/27 12:34:50;;;;;;;1.20;0.93;;;8.00;99.90;;;;;;5028709;28;20441;-87
2021/11/27 12:37:33;;;;;;;1.87;0.93;;;7.90;99.90;;;;;;4997253;28;20446;-87
2021/11/27 12:40:02;;;;;;;1.23;0.93;;;7.90;99.90;;;;;;5041118;28;20438;-85
2021/11/27 12:42:39;;;;;;;1.30;1.03;;;7.90;99.90;;;;;;5056162;28;20453;-86
2021/11/27 12:45:57;;;;;;;3.10;1.07;;;7.80;99.90;;;;;;5040720;28;20434;-86
2021/11/27 12:48:39;;;;;;;2.20;1.60;;;7.80;99.90;;;;;;5055489;28;20458;-85
2021/11/27 12:51:25;;;;;;;1.70;0.80;;;7.80;99.90;;;;;;5026113;28;20469;-86
2021/11/27 12:54:27;;;;;;;4.63;1.30;;;7.80;99.90;;;;;;5018401;28;20450;-87
2021/11/27 12:57:15;;;;;;;1.47;1.30;;;8.00;99.90;;;;;;5032856;28;20436;-86
2021/11/27 12:59:45;;;;;;;4.10;1.90;;;8.00;99.90;;;;;;5029601;28;20464;-87
2021/11/27 13:02:13;;;;;;;8.43;1.80;;;8.00;99.90;;;;;;5039502;28;20848;-86
2021/11/27 13:04:40;;;;;;;3.87;2.43;;;7.90;99.90;;;;;;5050203;28;20465;-86
2021/11/27 13:07:08;;;;;;;2.90;1.90;;;7.70;99.90;;;;;;5035770;28;20461;-87
2021/11/27 13:09:35;;;;;;;3.10;1.60;;;7.60;99.90;;;;;;5023063;28;20473;-87
2021/11/27 13:12:11;;;;;;;1.67;1.43;;;7.50;99.90;;;;;;5021679;28;20496;-87
2021/11/27 13:14:38;;;;;;;1.40;0.97;;;7.40;99.90;;;;;;5034889;28;20475;-88
2021/11/27 13:17:08;;;;;;;2.00;1.30;;;7.40;99.90;;;;;;5021966;28;20454;-87
2021/11/27 13:19:37;;;;;;;1.33;1.00;;;7.20;99.90;;;;;;5020386;28;20489;-86